createdAt,value
2023-04-18T00:21:55.026Z,85.27
2023-04-18T00:24:52.681Z,85.18
2023-04-18T00:32:52.581Z,85.15
2023-04-18T00:36:10.720Z,85.07
2023-04-18T00:39:01.922Z,85.09
2023-04-18T00:45:26.462Z,85.14
2023-04-18T00:48:18.929Z,85.36
2023-04-18T00:51:14.551Z,85.33
2023-04-18T00:54:13.953Z,85.22
2023-04-18T00:57:19.299Z,85.44
2023-04-18T01:00:15.638Z,85.52
2023-04-18T01:10:35.479Z,85.61
2023-04-18T02:46:22.323Z,87.81
2023-04-18T02:49:58.678Z,88.05
2023-04-18T02:53:49.164Z,88.19
2023-04-18T02:57:17.662Z,88.34
2023-04-18T03:12:30.766Z,89.38
2023-04-18T03:16:42.363Z,88.96
2023-04-18T03:20:16.577Z,88.77
2023-04-18T03:44:38.795Z,89.03
2023-04-18T03:47:54.571Z,89.14
2023-04-18T03:51:08.313Z,88.89
2023-04-18T03:54:11.844Z,88.94
2023-04-18T03:57:31.342Z,89.36
2023-04-18T04:00:46.639Z,89.42
2023-04-18T04:04:23.673Z,89.67
2023-04-18T04:07:29.367Z,89.81
2023-04-18T04:14:14.564Z,89.18
2023-04-18T04:21:42.134Z,89.17
2023-04-18T04:34:09.414Z,88.95
2023-04-18T04:41:48.684Z,88.86
2023-04-18T04:45:31.751Z,88.83
2023-04-18T04:59:55.480Z,89.08
2023-04-18T05:03:14.878Z,89.24
2023-04-18T05:07:09.737Z,89.49
2023-04-18T05:10:25.287Z,89.92
2023-04-18T05:13:58.033Z,90.02
2023-04-18T05:17:45.040Z,89.84
2023-04-18T05:29:21.178Z,89.65
2023-04-18T05:32:45.834Z,89.62
2023-04-18T05:48:45.722Z,89.83
2023-04-18T06:01:51.970Z,90.34
2023-04-18T06:04:56.877Z,90.38
2023-04-18T06:07:49.581Z,90.22
2023-04-18T06:11:38.790Z,90.31
2023-04-18T06:14:30.024Z,90.27
2023-04-18T06:17:21.623Z,90.30
2023-04-18T06:20:13.351Z,90.08
2023-04-18T06:23:20.548Z,89.74
2023-04-18T06:26:21.191Z,89.44
2023-04-18T06:29:14.996Z,89.35
2023-04-18T06:32:06.434Z,89.20
2023-04-18T06:35:02.085Z,89.26
2023-04-18T06:37:56.101Z,89.02
2023-04-18T06:40:47.077Z,89.05
2023-04-18T06:43:49.140Z,89.20
2023-04-18T06:46:53.716Z,89.20
2023-04-18T06:49:50.788Z,89.01
2023-04-18T06:52:46.008Z,88.80
2023-04-18T06:56:09.502Z,88.95
2023-04-18T06:59:10.441Z,88.97
2023-04-18T07:02:49.471Z,88.82
2023-04-18T07:05:40.796Z,88.55
2023-04-18T07:08:31.927Z,88.33
2023-04-18T07:11:37.536Z,88.05
2023-04-18T07:14:28.884Z,87.79
2023-04-18T07:17:33.363Z,87.24
2023-04-18T07:20:37.661Z,86.62
2023-04-18T07:23:44.044Z,86.02
2023-04-18T07:26:39.617Z,85.27
2023-04-18T07:29:30.842Z,84.63
2023-04-18T07:32:21.653Z,83.92
2023-04-18T07:35:25.367Z,82.24
2023-04-18T07:38:24.472Z,80.80
2023-04-18T07:41:17.795Z,79.97
2023-04-18T07:44:15.379Z,79.86
2023-04-18T07:47:11.285Z,80.02
2023-04-18T07:50:04.651Z,79.05
2023-04-18T07:52:56.239Z,77.61
2023-04-18T07:55:56.767Z,75.99
2023-04-18T08:04:29.110Z,76.18
2023-04-18T08:12:01.812Z,73.09
2023-04-18T08:15:25.959Z,70.25
2023-04-18T08:19:04.929Z,64.67
2023-04-18T08:22:31.862Z,62.79
2023-04-18T08:26:27.040Z,62.51
2023-04-18T08:40:58.889Z,55.17
2023-04-18T08:44:14.003Z,55.58
2023-04-18T08:47:50.576Z,55.47
2023-04-18T08:51:21.156Z,55.09
2023-04-18T09:02:58.986Z,46.51
2023-04-18T09:06:15.090Z,44.13
2023-04-18T09:09:18.854Z,44.83
2023-04-18T09:12:31.430Z,45.90
2023-04-18T09:15:37.900Z,46.88
2023-04-18T09:18:44.964Z,47.28
2023-04-18T09:21:49.056Z,47.04
2023-04-18T09:24:57.759Z,46.02
2023-04-18T09:28:36.786Z,44.97
2023-04-18T09:32:03.397Z,43.44
2023-04-18T09:35:41.620Z,40.85
2023-04-18T09:38:46.601Z,39.28
2023-04-18T09:41:37.710Z,38.27
2023-04-18T10:09:50.054Z,29.57
2023-04-18T10:21:30.303Z,27.94
2023-04-18T10:25:17.341Z,28.20
2023-04-18T10:31:55.531Z,26.77
2023-04-18T10:39:14.905Z,25.04
2023-04-18T10:46:31.608Z,24.95
2023-04-18T10:53:02.482Z,25.95
2023-04-18T10:55:57.051Z,26.41
2023-04-18T10:59:16.430Z,25.54
2023-04-18T11:02:43.807Z,25.29
2023-04-18T11:05:40.351Z,24.83
2023-04-18T11:12:56.152Z,23.25
2023-04-18T11:20:29.927Z,23.94
2023-04-18T11:31:25.860Z,25.54
2023-04-18T11:34:51.312Z,26.86
2023-04-18T11:38:28.366Z,27.55
2023-04-18T11:41:32.674Z,27.46
2023-04-18T11:44:40.165Z,28.02
2023-04-18T11:51:44.961Z,27.83
2023-04-18T11:54:57.429Z,27.15
2023-04-18T11:57:55.752Z,27.39
2023-04-18T12:00:49.233Z,27.89
2023-04-18T12:03:40.520Z,28.59
2023-04-18T12:06:46.755Z,28.84
2023-04-18T12:13:27.336Z,28.53
2023-04-18T12:16:19.979Z,27.68
2023-04-18T12:22:20.573Z,25.85
2023-04-18T12:25:37.272Z,25.25
2023-04-18T12:29:30.513Z,24.49
2023-04-18T12:36:08.978Z,24.20
2023-04-18T12:39:02.881Z,25.61
2023-04-18T12:42:22.021Z,25.93
2023-04-18T12:45:13.517Z,27.86
2023-04-18T12:51:43.945Z,28.41
2023-04-18T12:54:47.271Z,29.08
2023-04-18T12:58:01.655Z,29.89
2023-04-18T13:01:02.917Z,31.38
2023-04-18T13:04:12.992Z,33.04
2023-04-18T13:07:08.061Z,33.14
2023-04-18T13:10:10.837Z,33.18
2023-04-18T13:13:06.910Z,33.12
2023-04-18T13:16:10.257Z,32.52
2023-04-18T13:19:14.348Z,33.66
2023-04-18T13:22:48.126Z,34.43
2023-04-18T13:26:09.750Z,35.62
2023-04-18T13:37:02.177Z,37.20
2023-04-18T13:40:35.068Z,38.48
2023-04-18T13:47:45.132Z,40.65
2023-04-18T13:52:21.572Z,41.37
2023-04-18T13:55:54.328Z,42.68
2023-04-18T13:59:01.233Z,44.09
2023-04-18T14:02:11.335Z,43.81
2023-04-18T14:05:35.382Z,44.19
2023-04-18T14:21:16.692Z,44.89
2023-04-18T14:28:53.603Z,45.55
2023-04-18T14:44:49.162Z,47.40
2023-04-18T14:48:14.086Z,47.99
2023-04-18T16:00:59.332Z,50.48
2023-04-18T16:04:31.457Z,50.38
2023-04-18T16:24:41.965Z,51.02
2023-04-18T16:35:29.183Z,50.75
2023-04-18T16:38:40.027Z,50.95
2023-04-18T16:54:52.791Z,52.75
2023-04-18T17:11:24.448Z,52.80
2023-04-18T17:19:15.707Z,53.47
2023-04-18T17:26:49.096Z,54.01
2023-04-18T17:59:58.632Z,54.00
2023-04-18T18:39:16.613Z,55.33
2023-04-18T19:43:25.796Z,60.19
2023-04-18T19:45:01.585Z,60.39
2023-04-18T19:48:35.357Z,60.74
2023-04-18T19:52:44.335Z,61.08
2023-04-18T20:04:12.361Z,61.70
2023-04-18T20:07:26.258Z,61.78
2023-04-18T20:24:04.886Z,62.65
2023-04-18T20:47:08.979Z,61.94
2023-04-18T20:50:20.796Z,61.65
2023-04-18T21:20:23.271Z,61.60
2023-04-18T21:24:54.668Z,62.11
2023-04-18T21:32:51.452Z,61.51
2023-04-18T21:44:56.311Z,62.33
2023-04-18T21:48:25.048Z,62.43
2023-04-18T21:51:57.310Z,62.40
2023-04-18T21:55:58.359Z,62.21
2023-04-18T21:59:57.101Z,62.12
2023-04-18T22:03:13.679Z,62.05
2023-04-18T22:06:51.476Z,62.30
2023-04-18T22:14:17.479Z,62.67
2023-04-18T22:18:04.857Z,63.00
2023-04-18T22:26:20.360Z,63.50
2023-04-18T22:32:52.331Z,63.47
2023-04-18T22:35:56.329Z,63.42
2023-04-18T22:39:33.932Z,63.54
2023-04-18T22:46:57.746Z,63.68
2023-04-18T22:54:24.086Z,64.44
2023-04-18T22:57:15.183Z,64.58
2023-04-18T23:00:09.157Z,64.77
2023-04-18T23:03:07.547Z,64.68
2023-04-18T23:06:28.004Z,64.76
2023-04-18T23:10:13.573Z,64.94
2023-04-18T23:13:18.181Z,65.01
2023-04-18T23:17:14.998Z,64.98
2023-04-18T23:20:44.965Z,65.05
2023-04-18T23:27:34.240Z,65.23
2023-04-18T23:30:34.139Z,65.08
2023-04-18T23:34:53.317Z,65.82
2023-04-18T23:38:15.491Z,66.16
2023-04-18T23:42:03.020Z,66.46
2023-04-18T23:45:54.439Z,66.99
2023-04-18T23:49:28.861Z,67.34
2023-04-18T23:56:24.319Z,68.45
2023-04-18T23:59:38.257Z,68.70
